Conway, Washington
Current Conditions -  °F | °C
As of 2:56 AM on Friday 24 Oct 2014 (Local Time) from KNUW Reporting Station
Broken Clouds Broken Clouds  
Wind Chill: 53°   Ceiling: 12000
Heat Index: 53°   Visibility: 10mi
Dew Point: 44°   Wind: 13mph
Humidity: 71%   Direction: 130°SE
Pressure: 30.01"   Gusts: NA
Location:  48.34°N, 122.35°W
Report Text: KNUW 240956Z 13011KT 10SM FEW030 SCT060 BKN120 12/07 A3001 RMK AO2 SLP166 T01170067 $
Loading
Personal Weather Stations






























Interactive Weather Map New forecast layout! Learn more

10-Day Weather Forecast

Advertisements
Track Severe Weather on mobile